createdAt,value
2017-08-07T04:08:00.949Z,965.6
2017-08-07T04:08:41.536Z,965.56
2017-08-07T04:09:22.101Z,965.56
2017-08-07T04:10:02.699Z,965.54
2017-08-07T04:10:43.258Z,965.57
2017-08-07T04:11:23.846Z,965.58
2017-08-07T04:12:04.427Z,965.58
2017-08-07T04:12:45.011Z,965.62
2017-08-07T04:13:25.592Z,965.61
2017-08-07T04:14:06.167Z,965.61
2017-08-07T04:14:46.754Z,965.6
2017-08-07T04:15:27.335Z,965.58
2017-08-07T04:16:07.914Z,965.55
2017-08-07T04:16:48.503Z,965.52
2017-08-07T04:17:29.091Z,965.58
2017-08-07T04:18:09.670Z,965.59
2017-08-07T04:18:50.245Z,965.56
2017-08-07T04:19:30.823Z,965.54
2017-08-07T04:20:11.409Z,965.55
2017-08-07T04:20:51.968Z,965.59
2017-08-07T04:21:32.551Z,965.56
2017-08-07T04:22:13.130Z,965.55
2017-08-07T04:22:53.792Z,965.59
2017-08-07T04:23:34.376Z,965.59
2017-08-07T04:24:14.951Z,965.55
2017-08-07T04:24:55.532Z,965.54
2017-08-07T04:25:36.119Z,965.54
2017-08-07T04:26:16.692Z,965.56
2017-08-07T04:26:57.271Z,965.52
2017-08-07T04:27:37.853Z,965.49
2017-08-07T04:28:18.442Z,965.51
2017-08-07T04:28:59.015Z,965.52
2017-08-07T04:29:39.591Z,965.48
2017-08-07T04:30:20.179Z,965.52
2017-08-07T04:31:00.753Z,965.5
2017-08-07T04:31:41.339Z,965.5
2017-08-07T04:32:22.161Z,965.44
2017-08-07T04:33:02.824Z,965.42
2017-08-07T04:33:43.593Z,965.41
2017-08-07T04:34:24.211Z,965.43
2017-08-07T04:35:04.919Z,965.45
2017-08-07T04:35:45.819Z,965.44
2017-08-07T04:36:26.608Z,965.42
2017-08-07T04:37:07.221Z,965.45
2017-08-07T04:37:47.808Z,965.43
2017-08-07T04:38:28.389Z,965.37
2017-08-07T04:39:08.972Z,965.39
2017-08-07T04:39:49.547Z,965.4
2017-08-07T04:40:30.131Z,965.42
2017-08-07T04:41:10.707Z,965.39
2017-08-07T04:41:51.294Z,965.39
2017-08-07T04:42:31.884Z,965.39
2017-08-07T04:43:12.470Z,965.37
2017-08-07T04:43:53.048Z,965.38
2017-08-07T04:44:33.633Z,965.4
2017-08-07T04:45:14.219Z,965.37
2017-08-07T04:45:54.800Z,965.36
2017-08-07T04:46:35.379Z,965.34
2017-08-07T04:47:15.965Z,965.38
2017-08-07T04:47:56.539Z,965.37
2017-08-07T04:48:37.131Z,965.36
2017-08-07T04:49:17.712Z,965.37
2017-08-07T04:49:58.285Z,965.34
2017-08-07T04:50:38.871Z,965.4
2017-08-07T04:51:19.445Z,965.37
2017-08-07T04:52:00.013Z,965.39
2017-08-07T04:52:40.620Z,965.36
2017-08-07T04:53:21.218Z,965.41
2017-08-07T04:54:01.812Z,965.37
2017-08-07T04:54:42.400Z,965.37
2017-08-07T04:55:22.981Z,965.35
2017-08-07T04:56:03.568Z,965.36
2017-08-07T04:56:44.151Z,965.3
2017-08-07T04:57:24.731Z,965.32
2017-08-07T04:58:05.315Z,965.28
2017-08-07T04:58:45.941Z,965.31
2017-08-07T04:59:26.527Z,965.31
2017-08-07T05:00:07.109Z,965.34
2017-08-07T05:00:47.691Z,965.32
2017-08-07T05:01:28.273Z,965.32
2017-08-07T05:02:08.879Z,965.3
2017-08-07T05:02:49.785Z,965.38
2017-08-07T05:03:30.812Z,965.33
2017-08-07T05:04:11.399Z,965.35
2017-08-07T05:04:51.985Z,965.31
2017-08-07T05:05:32.573Z,965.33
2017-08-07T05:06:13.152Z,965.27
2017-08-07T05:06:53.726Z,965.3
2017-08-07T05:07:34.313Z,965.29
2017-08-07T05:08:15.066Z,965.28
2017-08-07T05:08:55.642Z,965.32
2017-08-07T05:09:36.220Z,965.3
2017-08-07T05:10:16.806Z,965.28
2017-08-07T05:10:57.384Z,965.29
2017-08-07T05:11:37.980Z,965.26
2017-08-07T05:12:18.546Z,965.27
2017-08-07T05:12:59.140Z,965.32
2017-08-07T05:13:39.701Z,965.28
2017-08-07T05:14:20.291Z,965.3
2017-08-07T05:15:00.875Z,965.28
2017-08-07T05:15:41.447Z,965.34
2017-08-07T05:16:22.023Z,965.35
2017-08-07T05:17:02.604Z,965.33
2017-08-07T05:17:43.185Z,965.35
2017-08-07T05:18:23.768Z,965.28
2017-08-07T05:19:04.475Z,965.32
2017-08-07T05:19:45.224Z,965.28
2017-08-07T05:20:25.868Z,965.3
2017-08-07T05:21:06.641Z,965.28
2017-08-07T05:21:47.220Z,965.27
2017-08-07T05:22:27.797Z,965.25
2017-08-07T05:23:08.378Z,965.29
2017-08-07T05:23:49.026Z,965.27
2017-08-07T05:24:29.790Z,965.25
2017-08-07T05:25:10.433Z,965.24
2017-08-07T05:25:51.122Z,965.26
2017-08-07T05:26:31.759Z,965.23
2017-08-07T05:27:12.547Z,965.23
2017-08-07T05:27:53.154Z,965.24
2017-08-07T05:28:33.751Z,965.23
2017-08-07T05:29:14.449Z,965.22
2017-08-07T05:29:55.146Z,965.2
2017-08-07T05:30:35.731Z,965.17
2017-08-07T05:31:16.489Z,965.18
2017-08-07T05:31:57.085Z,965.17
2017-08-07T05:32:37.798Z,965.13
2017-08-07T05:33:18.441Z,965.15
2017-08-07T05:33:59.068Z,965.16
2017-08-07T05:34:39.665Z,965.13
2017-08-07T05:35:20.252Z,965.17
2017-08-07T05:36:00.845Z,965.14
2017-08-07T05:36:41.494Z,965.15
2017-08-07T05:37:22.188Z,965.18
2017-08-07T05:38:02.763Z,965.18
2017-08-07T05:38:43.379Z,965.21
2017-08-07T05:39:24.117Z,965.21
2017-08-07T05:40:04.700Z,965.2
2017-08-07T05:40:45.410Z,965.2
2017-08-07T05:41:26.365Z,965.23
2017-08-07T05:42:07.143Z,965.21
2017-08-07T05:42:47.733Z,965.2
2017-08-07T05:43:28.484Z,965.22
2017-08-07T05:44:09.143Z,965.19
2017-08-07T05:44:49.727Z,965.22
2017-08-07T05:45:30.372Z,965.22
2017-08-07T05:46:10.952Z,965.15
2017-08-07T05:46:51.528Z,965.2
2017-08-07T05:47:32.115Z,965.16
2017-08-07T05:48:12.702Z,965.21
2017-08-07T05:48:53.292Z,965.14
2017-08-07T05:49:33.882Z,965.15
2017-08-07T05:50:14.474Z,965.11
2017-08-07T05:50:55.060Z,965.14
2017-08-07T05:51:35.643Z,965.16
2017-08-07T05:52:16.226Z,965.12
2017-08-07T05:52:56.814Z,965.1
2017-08-07T05:53:37.394Z,965.13
2017-08-07T05:54:17.978Z,965.11
2017-08-07T05:54:58.564Z,965.12
2017-08-07T05:55:39.138Z,965.15
2017-08-07T05:56:19.719Z,965.14
2017-08-07T05:57:00.303Z,965.11
2017-08-07T05:57:40.885Z,965.13
2017-08-07T05:58:21.471Z,965.09
2017-08-07T05:59:02.058Z,965.09
2017-08-07T05:59:42.648Z,965.05
2017-08-07T06:00:23.229Z,965.07
2017-08-07T06:01:03.822Z,965.05
2017-08-07T06:01:44.409Z,965.06
2017-08-07T06:02:25.322Z,965.07
2017-08-07T06:03:05.891Z,965.06
2017-08-07T06:03:46.482Z,965.09
2017-08-07T06:04:27.064Z,965.07
2017-08-07T06:05:07.649Z,965.09
2017-08-07T06:05:48.227Z,965.05
2017-08-07T06:06:28.815Z,965.09
2017-08-07T06:07:09.452Z,965.07
2017-08-07T06:07:50.081Z,965.08
2017-08-07T06:08:30.671Z,965.07
2017-08-07T06:09:11.257Z,965.09
2017-08-07T06:09:51.847Z,965.06
2017-08-07T06:10:32.434Z,965.08
2017-08-07T06:11:13.019Z,965.1
2017-08-07T06:11:53.608Z,965.1
2017-08-07T06:12:34.195Z,965.14
2017-08-07T06:13:14.771Z,965.08
2017-08-07T06:13:55.357Z,965.09
2017-08-07T06:14:35.934Z,965.1
2017-08-07T06:15:16.527Z,965.09
2017-08-07T06:15:57.101Z,965.08
2017-08-07T06:16:37.717Z,965.06
2017-08-07T06:17:18.303Z,965.09
2017-08-07T06:17:58.884Z,965.06
2017-08-07T06:18:39.462Z,965.07
2017-08-07T06:19:20.054Z,965.07
2017-08-07T06:20:00.644Z,965.06
2017-08-07T06:20:41.222Z,965.07
2017-08-07T06:21:21.834Z,965.07
2017-08-07T06:22:02.473Z,965.08
2017-08-07T06:22:44.032Z,965.07
2017-08-07T06:23:23.945Z,965.04
2017-08-07T06:24:04.467Z,965.02
2017-08-07T06:24:45.041Z,965.01
2017-08-07T06:25:25.624Z,964.99
2017-08-07T06:26:06.208Z,964.97
2017-08-07T06:26:46.797Z,964.97
2017-08-07T06:27:27.382Z,965
2017-08-07T06:28:07.956Z,964.98
2017-08-07T06:28:48.543Z,964.98
2017-08-07T06:29:29.130Z,964.97
2017-08-07T06:30:09.724Z,964.96
2017-08-07T06:30:50.331Z,964.95
2017-08-07T06:31:30.933Z,964.93
2017-08-07T06:32:11.518Z,964.97
2017-08-07T06:32:52.089Z,964.92
2017-08-07T06:33:32.692Z,964.9
2017-08-07T06:34:13.259Z,964.91
2017-08-07T06:34:53.854Z,964.92
2017-08-07T06:35:34.439Z,964.87
2017-08-07T06:36:15.024Z,964.85
2017-08-07T06:36:55.620Z,964.81
2017-08-07T06:37:36.208Z,964.83
2017-08-07T06:38:16.791Z,964.83
2017-08-07T06:38:57.496Z,964.78
2017-08-07T06:39:38.278Z,964.8
2017-08-07T06:40:18.896Z,964.77
2017-08-07T06:40:59.475Z,964.79
2017-08-07T06:41:40.055Z,964.76
2017-08-07T06:42:20.636Z,964.76
2017-08-07T06:43:01.214Z,964.82
2017-08-07T06:43:41.795Z,964.76
2017-08-07T06:44:22.382Z,964.78
2017-08-07T06:45:02.968Z,964.75
2017-08-07T06:45:43.541Z,964.77
2017-08-07T06:46:24.122Z,964.74
2017-08-07T06:47:04.703Z,964.72
2017-08-07T06:47:45.293Z,964.73
2017-08-07T06:48:25.878Z,964.77
2017-08-07T06:49:06.463Z,964.74
2017-08-07T06:49:47.053Z,964.72
2017-08-07T06:50:27.625Z,964.71
2017-08-07T06:51:08.213Z,964.75
2017-08-07T06:51:48.805Z,964.69
2017-08-07T06:52:29.390Z,964.75
2017-08-07T06:53:09.975Z,964.72
2017-08-07T06:53:50.569Z,964.75
2017-08-07T06:54:31.170Z,964.72
2017-08-07T06:57:04.437Z,964.69
2017-08-07T06:57:45.015Z,964.74
2017-08-07T06:58:25.600Z,964.68
2017-08-07T06:59:06.184Z,964.66
2017-08-07T06:59:46.776Z,964.7
2017-08-07T07:00:27.359Z,964.67
2017-08-07T07:01:07.941Z,964.65
2017-08-07T07:01:48.627Z,964.67
2017-08-07T07:02:29.206Z,964.66
2017-08-07T07:03:09.791Z,964.74
2017-08-07T07:03:50.371Z,964.66
2017-08-07T07:04:30.954Z,964.68
2017-08-07T07:05:11.541Z,964.66
2017-08-07T07:05:52.123Z,964.64
2017-08-07T07:06:32.713Z,964.66
2017-08-07T07:07:13.300Z,964.61
2017-08-07T07:07:53.900Z,964.61
2017-08-07T07:08:34.475Z,964.62
2017-08-07T07:09:15.058Z,964.61
2017-08-07T07:09:55.645Z,964.55
2017-08-07T07:10:36.234Z,964.58
2017-08-07T07:11:16.813Z,964.55
2017-08-07T07:11:57.381Z,964.54
2017-08-07T07:12:37.964Z,964.5
2017-08-07T07:13:18.546Z,964.51
2017-08-07T07:13:59.128Z,964.49
2017-08-07T07:14:39.707Z,964.51
2017-08-07T07:15:20.282Z,964.49
2017-08-07T07:16:00.854Z,964.48
2017-08-07T07:16:41.682Z,964.44
2017-08-07T07:17:22.272Z,964.49
2017-08-07T07:18:02.847Z,964.46
2017-08-07T07:18:43.433Z,964.43
2017-08-07T07:19:24.017Z,964.46
2017-08-07T07:20:04.602Z,964.46
2017-08-07T07:20:45.193Z,964.48
2017-08-07T07:21:25.780Z,964.44
2017-08-07T07:22:06.363Z,964.44
2017-08-07T07:22:46.946Z,964.42
2017-08-07T07:23:27.534Z,964.44
2017-08-07T07:24:08.118Z,964.44
2017-08-07T07:24:48.711Z,964.47
2017-08-07T07:25:29.297Z,964.44
2017-08-07T07:26:09.894Z,964.45
2017-08-07T07:26:50.482Z,964.52
2017-08-07T07:27:31.061Z,964.47
2017-08-07T07:28:11.644Z,964.5
2017-08-07T07:28:52.231Z,964.51
2017-08-07T07:29:32.811Z,964.51
2017-08-07T07:30:13.401Z,964.49
2017-08-07T07:30:53.982Z,964.51
2017-08-07T07:31:34.550Z,964.48
2017-08-07T07:32:15.148Z,964.42
2017-08-07T07:32:55.744Z,964.42
2017-08-07T07:33:36.324Z,964.39
2017-08-07T07:34:16.906Z,964.37
2017-08-07T07:34:57.489Z,964.38
2017-08-07T07:35:38.078Z,964.42
2017-08-07T07:36:18.665Z,964.38
2017-08-07T07:36:59.257Z,964.37
2017-08-07T07:37:39.841Z,964.38
2017-08-07T07:38:20.430Z,964.38
2017-08-07T07:39:01.013Z,964.37
2017-08-07T07:39:41.584Z,964.34
2017-08-07T07:40:22.178Z,964.34
2017-08-07T07:41:02.759Z,964.35
2017-08-07T07:41:43.338Z,964.32
2017-08-07T07:42:23.931Z,964.32
2017-08-07T07:43:04.516Z,964.29
2017-08-07T07:43:45.093Z,964.32
2017-08-07T07:44:25.671Z,964.33
2017-08-07T07:45:06.260Z,964.29
2017-08-07T07:45:46.850Z,964.27
2017-08-07T07:46:27.436Z,964.27
2017-08-07T07:47:08.065Z,964.25
2017-08-07T07:47:48.638Z,964.26
2017-08-07T07:48:29.228Z,964.23
2017-08-07T07:49:09.800Z,964.25
2017-08-07T07:49:50.386Z,964.25
2017-08-07T07:50:30.971Z,964.24
2017-08-07T07:51:11.549Z,964.22
2017-08-07T07:51:52.142Z,964.16
2017-08-07T07:52:32.735Z,964.19
2017-08-07T07:53:13.315Z,964.17
2017-08-07T07:53:53.904Z,964.18
2017-08-07T07:54:34.478Z,964.18
2017-08-07T07:55:15.052Z,964.16
2017-08-07T07:55:55.644Z,964.15
2017-08-07T07:56:36.228Z,964.12
2017-08-07T07:57:16.807Z,964.11
2017-08-07T07:57:57.394Z,964.12
2017-08-07T07:58:37.980Z,964.15
2017-08-07T07:59:18.559Z,964.12
2017-08-07T07:59:59.214Z,964.14
2017-08-07T08:00:39.801Z,964.09
2017-08-07T08:01:20.398Z,964.13
2017-08-07T08:02:00.970Z,964.07
2017-08-07T08:02:41.549Z,964.12
2017-08-07T08:03:22.146Z,964.08
2017-08-07T08:04:02.746Z,964.05
2017-08-07T08:04:43.314Z,964.05
2017-08-07T08:05:23.899Z,964.06
2017-08-07T08:06:04.556Z,964.06
2017-08-07T08:06:45.308Z,964.07
2017-08-07T08:07:25.891Z,964.01
2017-08-07T08:08:06.503Z,964.01
2017-08-07T08:08:47.082Z,964.04
2017-08-07T08:09:27.668Z,964.02
2017-08-07T08:10:08.241Z,963.98
2017-08-07T08:10:48.836Z,964.01
2017-08-07T08:11:29.415Z,964.05
2017-08-07T08:12:10.001Z,964
2017-08-07T08:12:50.583Z,964.06
2017-08-07T08:13:31.166Z,964.01
2017-08-07T08:14:11.733Z,964
2017-08-07T08:14:52.323Z,964.03
2017-08-07T08:15:32.889Z,964.03
2017-08-07T08:16:13.473Z,964
2017-08-07T08:16:54.044Z,963.99
2017-08-07T08:17:34.616Z,964
2017-08-07T08:18:15.194Z,964.01
2017-08-07T08:18:55.780Z,964.02
2017-08-07T08:19:36.357Z,964.01
2017-08-07T08:20:16.930Z,963.99
2017-08-07T08:20:57.507Z,964.01
2017-08-07T08:21:38.098Z,964.05
2017-08-07T08:22:18.669Z,964.04
2017-08-07T08:22:59.273Z,964.06
2017-08-07T08:23:39.867Z,964.02
2017-08-07T08:24:20.446Z,964.02
2017-08-07T08:25:01.030Z,963.99
2017-08-07T08:25:41.627Z,964.07
2017-08-07T08:26:22.217Z,964.02
2017-08-07T08:27:02.808Z,964.01
2017-08-07T08:27:43.388Z,964
2017-08-07T08:28:23.963Z,964.07
2017-08-07T08:29:04.546Z,964.07
2017-08-07T08:29:45.129Z,964.07
2017-08-07T08:30:25.719Z,964.04
2017-08-07T08:31:06.297Z,964.06
2017-08-07T08:31:46.877Z,964
2017-08-07T08:32:27.467Z,964.07
2017-08-07T08:33:08.047Z,964.07
2017-08-07T08:33:48.635Z,964.09
2017-08-07T08:34:29.226Z,964.07
2017-08-07T08:35:09.812Z,964.09
2017-08-07T08:35:50.404Z,964.09
2017-08-07T08:36:30.997Z,964.07
2017-08-07T08:37:11.578Z,964.09
2017-08-07T08:37:52.150Z,964.04
2017-08-07T08:38:32.732Z,964.05
2017-08-07T08:39:13.321Z,964.04
2017-08-07T08:39:53.897Z,964.05
2017-08-07T08:40:34.501Z,964.01
2017-08-07T08:41:15.070Z,964.07
2017-08-07T08:41:55.666Z,964.01
2017-08-07T08:42:36.335Z,964.01
2017-08-07T08:43:16.928Z,964
2017-08-07T08:43:57.783Z,964
2017-08-07T08:44:38.372Z,964.01
2017-08-07T08:45:18.957Z,964.03
2017-08-07T08:45:59.539Z,964.07
2017-08-07T08:46:40.129Z,964.03
2017-08-07T08:47:20.700Z,964.01
2017-08-07T08:48:01.293Z,963.96
2017-08-07T08:48:41.872Z,963.96
2017-08-07T08:49:22.465Z,963.95
2017-08-07T08:50:03.043Z,963.92
2017-08-07T08:50:43.642Z,963.92
2017-08-07T08:51:24.215Z,963.96
2017-08-07T08:52:04.808Z,963.97
2017-08-07T08:52:45.379Z,963.98
2017-08-07T08:53:25.983Z,963.92
2017-08-07T08:54:06.558Z,963.89
2017-08-07T08:54:47.134Z,963.92
2017-08-07T08:55:27.723Z,963.88
2017-08-07T08:56:08.302Z,963.86
2017-08-07T08:56:48.884Z,963.85
2017-08-07T08:57:29.475Z,963.86
2017-08-07T08:58:10.060Z,963.93
2017-08-07T08:58:50.637Z,963.87
2017-08-07T08:59:31.229Z,963.84
2017-08-07T09:00:11.833Z,963.82
2017-08-07T09:00:52.435Z,963.82
2017-08-07T09:01:33.016Z,963.85
2017-08-07T09:02:13.604Z,963.86
2017-08-07T09:02:54.164Z,963.81
2017-08-07T09:03:34.751Z,963.82
2017-08-07T09:04:15.380Z,963.78
2017-08-07T09:04:55.969Z,963.74
2017-08-07T09:05:36.568Z,963.77
2017-08-07T09:06:17.178Z,963.79
2017-08-07T09:06:58.048Z,963.74
2017-08-07T09:07:38.644Z,963.74
2017-08-07T09:08:19.381Z,963.76
2017-08-07T09:09:00.200Z,963.8
2017-08-07T09:09:40.873Z,963.76
2017-08-07T09:10:21.459Z,963.7
2017-08-07T09:11:02.041Z,963.76
2017-08-07T09:11:42.629Z,963.73
2017-08-07T09:12:23.217Z,963.77
2017-08-07T09:13:03.804Z,963.76
2017-08-07T09:13:44.472Z,963.76
2017-08-07T09:14:25.082Z,963.8
2017-08-07T09:15:05.814Z,963.74
2017-08-07T09:15:46.400Z,963.75
2017-08-07T09:16:27.137Z,963.73
2017-08-07T09:17:07.741Z,963.71
2017-08-07T09:17:48.323Z,963.77
2017-08-07T09:18:28.911Z,963.75
2017-08-07T09:19:09.636Z,963.72
2017-08-07T09:19:50.230Z,963.73
2017-08-07T09:20:30.821Z,963.66
2017-08-07T09:21:11.408Z,963.67
2017-08-07T09:21:51.992Z,963.66
2017-08-07T09:22:32.588Z,963.71
2017-08-07T09:23:13.170Z,963.73
2017-08-07T09:23:53.759Z,963.72
2017-08-07T09:24:34.343Z,963.71
2017-08-07T09:25:14.974Z,963.71
2017-08-07T09:25:55.798Z,963.71
2017-08-07T09:26:36.646Z,963.71
2017-08-07T09:27:17.555Z,963.68
2017-08-07T09:27:58.276Z,963.61
2017-08-07T09:28:38.875Z,963.64
2017-08-07T09:29:19.466Z,963.65
2017-08-07T09:30:00.055Z,963.69
2017-08-07T09:30:40.645Z,963.67
2017-08-07T09:31:21.233Z,963.65
2017-08-07T09:32:01.823Z,963.59
2017-08-07T09:32:42.412Z,963.62
2017-08-07T09:33:23.002Z,963.59
2017-08-07T09:34:03.589Z,963.58
2017-08-07T09:34:44.180Z,963.57
2017-08-07T09:35:24.766Z,963.62
2017-08-07T09:36:05.409Z,963.58
2017-08-07T09:36:46.094Z,963.57
2017-08-07T09:37:26.803Z,963.52
2017-08-07T09:38:07.481Z,963.58
2017-08-07T09:38:48.086Z,963.53
2017-08-07T09:39:28.676Z,963.52
2017-08-07T09:40:09.257Z,963.5
2017-08-07T09:40:49.848Z,963.55
2017-08-07T09:41:30.440Z,963.56
2017-08-07T09:42:11.028Z,963.48
2017-08-07T09:42:51.615Z,963.5
2017-08-07T09:43:32.346Z,963.48
2017-08-07T09:44:13.018Z,963.51
2017-08-07T09:44:53.599Z,963.52
2017-08-07T09:45:34.188Z,963.48
2017-08-07T09:46:14.777Z,963.48
2017-08-07T09:46:55.370Z,963.57
2017-08-07T09:47:35.939Z,963.46
2017-08-07T09:48:16.530Z,963.52
2017-08-07T09:48:57.119Z,963.47
2017-08-07T09:49:37.701Z,963.5
2017-08-07T09:50:18.296Z,963.54
2017-08-07T09:50:58.886Z,963.46
2017-08-07T09:51:39.468Z,963.49
2017-08-07T09:52:20.056Z,963.38
2017-08-07T09:53:00.628Z,963.47
2017-08-07T09:53:41.219Z,963.49
2017-08-07T09:54:21.813Z,963.43
2017-08-07T09:55:09.342Z,963.43
2017-08-07T09:55:49.921Z,963.43
2017-08-07T09:56:30.519Z,963.42
2017-08-07T09:57:11.114Z,963.43
2017-08-07T09:57:51.708Z,963.43
2017-08-07T09:58:32.312Z,963.39
2017-08-07T09:59:12.988Z,963.42
2017-08-07T09:59:53.578Z,963.41
2017-08-07T10:00:34.168Z,963.41
2017-08-07T10:01:14.764Z,963.48
2017-08-07T10:01:55.355Z,963.39
2017-08-07T10:02:35.957Z,963.42
2017-08-07T10:03:16.545Z,963.36
2017-08-07T10:03:57.126Z,963.35
2017-08-07T10:04:38.438Z,963.28
2017-08-07T10:05:19.415Z,963.31
2017-08-07T10:06:00.235Z,963.33
2017-08-07T10:06:40.967Z,963.33
2017-08-07T10:07:21.825Z,963.35
2017-08-07T10:08:02.538Z,963.34
2017-08-07T10:08:43.127Z,963.31
2017-08-07T10:09:23.711Z,963.35
2017-08-07T10:10:04.298Z,963.35
2017-08-07T10:10:44.885Z,963.35
2017-08-07T10:11:25.463Z,963.33
2017-08-07T10:12:06.053Z,963.38
2017-08-07T10:12:46.640Z,963.32
2017-08-07T10:13:27.226Z,963.35
2017-08-07T10:14:07.820Z,963.34
2017-08-07T10:14:48.401Z,963.3
2017-08-07T10:15:29.010Z,963.3
2017-08-07T10:16:09.595Z,963.25
2017-08-07T10:16:50.185Z,963.2
2017-08-07T10:17:30.773Z,963.25
2017-08-07T10:18:11.363Z,963.24
2017-08-07T10:18:51.972Z,963.27
2017-08-07T10:19:32.708Z,963.26
2017-08-07T10:20:13.413Z,963.24
2017-08-07T10:20:54.226Z,963.22
2017-08-07T10:21:34.858Z,963.29
2017-08-07T10:22:15.445Z,963.25
2017-08-07T10:22:56.034Z,963.25
2017-08-07T10:23:36.615Z,963.27
2017-08-07T10:24:17.248Z,963.25
2017-08-07T10:24:57.919Z,963.31
2017-08-07T10:25:38.504Z,963.27
2017-08-07T10:26:19.111Z,963.23
2017-08-07T10:26:59.697Z,963.25
2017-08-07T10:27:40.289Z,963.21
2017-08-07T10:28:20.874Z,963.26
2017-08-07T10:29:01.466Z,963.28
2017-08-07T10:29:42.064Z,963.22
2017-08-07T10:30:22.644Z,963.26
2017-08-07T10:31:03.235Z,963.23
2017-08-07T10:31:43.821Z,963.22
2017-08-07T10:32:24.413Z,963.21
2017-08-07T10:33:05.008Z,963.22
2017-08-07T10:33:45.596Z,963.19
2017-08-07T10:34:26.181Z,963.19
2017-08-07T10:35:06.857Z,963.18
2017-08-07T10:35:47.442Z,963.17
2017-08-07T10:36:28.028Z,963.17
2017-08-07T10:37:08.617Z,963.17
2017-08-07T10:37:49.199Z,963.17
2017-08-07T10:42:43.210Z,963.06
2017-08-07T10:43:23.797Z,963.15
2017-08-07T10:44:04.380Z,963.12
2017-08-07T10:44:44.963Z,963.14
2017-08-07T10:45:25.555Z,963.13
2017-08-07T10:46:06.142Z,963.09
2017-08-07T10:46:46.783Z,963.07
2017-08-07T10:47:27.552Z,963.06
2017-08-07T10:48:08.268Z,963.04
2017-08-07T10:48:49.156Z,963.01
2017-08-07T10:49:30.024Z,963
2017-08-07T10:50:10.935Z,963.01
2017-08-07T10:50:51.956Z,963.04
2017-08-07T10:51:32.904Z,962.99
2017-08-07T10:52:13.585Z,962.94
2017-08-07T10:52:54.616Z,962.97
2017-08-07T10:53:35.429Z,963.02
2017-08-07T10:54:16.432Z,963
2017-08-07T10:54:57.472Z,962.93
2017-08-07T10:55:38.497Z,962.95
2017-08-07T10:56:19.399Z,962.98
2017-08-07T10:57:00.310Z,962.98
2017-08-07T10:57:41.365Z,962.92
2017-08-07T10:58:22.104Z,962.93
2017-08-07T10:59:02.692Z,962.91
2017-08-07T10:59:43.449Z,962.94
2017-08-07T11:00:24.129Z,963
2017-08-07T11:01:04.996Z,962.9
2017-08-07T11:01:45.827Z,962.86
2017-08-07T11:02:27.073Z,962.84
2017-08-07T11:03:08.041Z,962.84
2017-08-07T11:03:48.697Z,962.85
2017-08-07T11:04:29.669Z,962.91
2017-08-07T11:05:10.414Z,962.87
2017-08-07T11:05:51.552Z,962.82
2017-08-07T11:06:32.438Z,962.84
2017-08-07T11:07:13.109Z,962.84
2017-08-07T11:07:53.838Z,962.89
2017-08-07T11:08:34.797Z,962.86
2017-08-07T11:09:16.011Z,962.83
2017-08-07T11:09:56.840Z,962.82
2017-08-07T11:10:37.668Z,962.83
2017-08-07T11:11:18.550Z,962.8
2017-08-07T11:11:59.265Z,962.79
2017-08-07T11:12:40.016Z,962.8
2017-08-07T11:13:20.850Z,962.76
2017-08-07T11:14:01.633Z,962.79
2017-08-07T11:14:42.485Z,962.79
2017-08-07T11:15:23.118Z,962.71
2017-08-07T11:16:03.877Z,962.88
2017-08-07T11:16:45.233Z,962.72
2017-08-07T11:17:26.167Z,962.73
2017-08-07T11:18:07.086Z,962.75
2017-08-07T11:18:47.994Z,962.74
2017-08-07T11:19:29.054Z,962.75
2017-08-07T11:20:09.766Z,962.72
2017-08-07T11:20:50.959Z,962.75
2017-08-07T11:21:32.082Z,962.68
2017-08-07T11:22:13.082Z,962.7
2017-08-07T11:22:54.196Z,962.69
2017-08-07T11:23:35.410Z,962.68
2017-08-07T11:24:16.306Z,962.69
2017-08-07T11:24:57.304Z,962.7
2017-08-07T11:25:38.514Z,962.67
2017-08-07T11:26:19.606Z,962.7
2017-08-07T11:27:00.597Z,962.66
2017-08-07T11:27:41.739Z,962.69
2017-08-07T11:28:22.730Z,962.72
2017-08-07T11:29:04.034Z,962.71
2017-08-07T11:29:45.799Z,962.75
2017-08-07T11:30:26.602Z,962.64
2017-08-07T11:31:07.677Z,962.65
2017-08-07T11:31:48.925Z,962.69
2017-08-07T11:32:30.613Z,962.68
2017-08-07T11:33:11.917Z,962.68
2017-08-07T11:33:52.872Z,962.65
2017-08-07T11:34:33.932Z,962.68
2017-08-07T11:35:14.876Z,962.67
2017-08-07T11:35:55.815Z,962.68
2017-08-07T11:36:37.073Z,962.64
2017-08-07T11:37:18.149Z,962.65
2017-08-07T11:37:59.129Z,962.64
2017-08-07T11:38:40.088Z,962.61
2017-08-07T11:39:20.978Z,962.61
2017-08-07T11:40:02.795Z,962.58
2017-08-07T11:40:44.150Z,962.55
2017-08-07T11:41:25.139Z,962.56
2017-08-07T11:42:06.116Z,962.59
2017-08-07T11:42:47.121Z,962.56
2017-08-07T11:43:28.213Z,962.6
2017-08-07T11:44:09.759Z,962.57
2017-08-07T11:44:50.998Z,962.54
2017-08-07T11:45:32.203Z,962.54
2017-08-07T11:46:13.452Z,962.55
2017-08-07T11:46:54.458Z,962.5
2017-08-07T11:47:35.264Z,962.53
2017-08-07T11:48:16.327Z,962.48
2017-08-07T11:48:57.742Z,962.47
2017-08-07T11:49:39.501Z,962.51
2017-08-07T11:50:20.397Z,962.47
2017-08-07T11:51:01.354Z,962.46
2017-08-07T11:51:42.256Z,962.49
2017-08-07T11:52:23.248Z,962.43
2017-08-07T11:53:03.923Z,962.47
2017-08-07T11:53:44.595Z,962.44
2017-08-07T11:54:25.679Z,962.5
2017-08-07T11:55:06.745Z,962.47
2017-08-07T11:55:47.810Z,962.46
2017-08-07T11:56:29.349Z,962.41
2017-08-07T11:57:10.231Z,962.49
2017-08-07T11:57:51.394Z,962.4
2017-08-07T11:58:32.154Z,962.45
2017-08-07T11:59:13.138Z,962.44
2017-08-07T11:59:54.247Z,962.41
2017-08-07T12:00:35.314Z,962.4
2017-08-07T12:01:16.351Z,962.41
2017-08-07T12:01:57.137Z,962.39
2017-08-07T12:02:38.438Z,962.47
2017-08-07T12:03:19.576Z,962.35
2017-08-07T12:04:00.833Z,962.42
2017-08-07T12:04:41.813Z,962.4
2017-08-07T12:05:22.765Z,962.43
2017-08-07T12:06:04.125Z,962.39
2017-08-07T12:06:45.063Z,962.35
2017-08-07T12:07:26.106Z,962.4
2017-08-07T12:08:07.399Z,962.37
2017-08-07T12:08:48.701Z,962.38
2017-08-07T12:09:30.059Z,962.36
2017-08-07T12:10:10.961Z,962.38
2017-08-07T12:10:52.042Z,962.33
2017-08-07T12:11:34.973Z,962.31
2017-08-07T12:12:16.376Z,962.36
2017-08-07T12:12:58.203Z,962.4
2017-08-07T12:13:39.519Z,962.41
2017-08-07T12:14:21.361Z,962.4
2017-08-07T12:15:02.274Z,962.4
2017-08-07T12:15:43.208Z,962.38
2017-08-07T12:16:24.666Z,962.34
2017-08-07T12:17:05.902Z,962.39
2017-08-07T12:17:47.308Z,962.4
2017-08-07T12:18:28.676Z,962.36
2017-08-07T12:19:09.467Z,962.37
2017-08-07T12:19:50.644Z,962.35
2017-08-07T12:20:31.713Z,962.37
2017-08-07T12:21:13.033Z,962.38
2017-08-07T12:21:53.918Z,962.34
2017-08-07T12:22:34.740Z,962.3
2017-08-07T12:23:15.907Z,962.32
2017-08-07T12:23:56.980Z,962.31
2017-08-07T12:24:38.301Z,962.25
2017-08-07T12:25:20.286Z,962.28
2017-08-07T12:26:01.269Z,962.31
2017-08-07T12:26:42.369Z,962.3
2017-08-07T12:27:23.301Z,962.22
2017-08-07T12:28:04.453Z,962.26
2017-08-07T12:28:45.932Z,962.32
2017-08-07T12:29:27.083Z,962.27
2017-08-07T12:30:07.998Z,962.2
2017-08-07T12:30:48.905Z,962.21
2017-08-07T12:31:29.827Z,962.22
2017-08-07T12:32:10.946Z,962.26
2017-08-07T12:32:52.029Z,962.27
2017-08-07T12:33:32.980Z,962.19
2017-08-07T12:34:14.049Z,962.2
2017-08-07T12:34:55.929Z,962.24
2017-08-07T12:35:37.713Z,962.25
2017-08-07T12:36:19.191Z,962.3
2017-08-07T12:37:00.195Z,962.23
2017-08-07T12:37:41.343Z,962.22
2017-08-07T12:38:22.154Z,962.2
2017-08-07T12:39:03.991Z,962.18
2017-08-07T12:39:45.806Z,962.16
2017-08-07T12:40:26.783Z,962.17
2017-08-07T12:41:07.947Z,962.2
2017-08-07T12:41:48.817Z,962.14
2017-08-07T12:42:29.647Z,962.1
2017-08-07T12:43:10.583Z,962.19
2017-08-07T12:43:51.704Z,962.21